Time;durP1;ratioP1;P1;durP2;ratioP2;P2;SDS_P1;SDS_P2;PMS_P1;PMS_P2;Temp;Humidity;BMP_temperature;BMP_pressure;BME280_temperature;BME280_humidity;BME280_pressure;Samples;Min_cycle;Max_cycle;Signal;HPM_P1;HPM_P2
2022/09/07 00:00:41;;;;;;;7.38;0.50;;;;;;;18.54;89.50;100559.28;7385772;19;20024;-66
2022/09/07 00:03:08;;;;;;;8.00;0.40;;;;;;;18.54;89.78;100556.63;7387066;19;20049;-66
2022/09/07 00:05:44;;;;;;;6.90;0.40;;;;;;;18.55;90.07;100552.94;7385395;19;20412;-66
2022/09/07 00:08:12;;;;;;;13.10;0.50;;;;;;;18.55;89.93;100549.47;7386543;19;20545;-66
2022/09/07 00:10:38;;;;;;;5.72;0.50;;;;;;;18.55;89.85;100549.47;7386053;19;20018;-66
2022/09/07 00:13:07;;;;;;;10.88;0.80;;;;;;;18.55;89.89;100546.78;7381840;19;20018;-66
2022/09/07 00:15:39;;;;;;;10.80;2.63;;;;;;;18.58;90.33;100544.53;7384892;19;20010;-66
2022/09/07 00:18:17;;;;;;;6.63;0.40;;;;;;;18.60;90.30;100541.63;7383268;19;20426;-66
2022/09/07 00:20:44;;;;;;;7.75;0.50;;;;;;;18.61;90.05;100540.63;7381554;19;20300;-67
2022/09/07 00:23:11;;;;;;;5.05;0.40;;;;;;;18.62;90.38;100535.09;7384645;19;20018;-66
2022/09/07 00:25:39;;;;;;;3.88;0.40;;;;;;;18.65;90.18;100536.50;7384782;19;20018;-66
2022/09/07 00:28:07;;;;;;;6.15;0.50;;;;;;;18.66;90.29;100538.13;7378294;19;20011;-66
2022/09/07 00:30:38;;;;;;;6.00;0.30;;;;;;;18.69;90.22;100533.19;7380982;19;20482;-66
2022/09/07 00:33:05;;;;;;;10.53;0.60;;;;;;;18.71;90.55;100527.66;7384150;19;20017;-66
2022/09/07 00:35:32;;;;;;;7.30;0.77;;;;;;;18.75;90.73;100528.84;7381634;19;20278;-67
2022/09/07 00:37:59;;;;;;;4.22;0.60;;;;;;;18.76;90.80;100522.50;7382382;19;20026;-67
2022/09/07 00:40:26;;;;;;;7.13;0.93;;;;;;;18.76;90.57;100515.31;7382040;19;20023;-66
2022/09/07 00:42:53;;;;;;;6.47;0.25;;;;;;;18.78;90.55;100513.28;7381532;19;20026;-66
2022/09/07 00:45:20;;;;;;;10.15;0.40;;;;;;;18.79;90.46;100509.53;7383712;19;20478;-66
2022/09/07 00:48:06;;;;;;;8.43;0.40;;;;;;;18.81;91.06;100512.00;7382208;19;20017;-66
2022/09/07 00:50:43;;;;;;;5.70;0.50;;;;;;;18.84;90.79;100519.59;7381901;19;20011;-66
2022/09/07 00:53:16;;;;;;;8.50;0.63;;;;;;;18.85;91.21;100510.53;7384893;19;20010;-66
2022/09/07 00:55:47;;;;;;;4.93;0.52;;;;;;;18.86;91.17;100506.03;7382854;19;20010;-65
2022/09/07 00:58:15;;;;;;;7.22;0.73;;;;;;;18.86;91.26;100496.19;7384807;19;20094;-67
2022/09/07 01:00:45;;;;;;;6.97;0.50;;;;;;;18.88;91.30;100499.47;7382587;19;20023;-66
2022/09/07 01:03:15;;;;;;;4.47;0.55;;;;;;;18.88;91.66;100498.66;7385593;19;20298;-66
2022/09/07 01:05:45;;;;;;;6.47;0.60;;;;;;;18.88;91.53;100496.78;7384074;19;20740;-66
2022/09/07 01:08:13;;;;;;;7.22;1.08;;;;;;;18.86;92.18;100487.38;7382089;19;20414;-67
2022/09/07 01:10:40;;;;;;;6.72;0.30;;;;;;;18.85;93.21;100475.88;7383641;19;20019;-66
2022/09/07 01:13:07;;;;;;;9.38;0.75;;;;;;;18.86;93.13;100485.53;7382056;19;20025;-66
2022/09/07 01:15:49;;;;;;;5.70;0.28;;;;;;;18.84;92.80;100484.94;7383537;19;20011;-66
2022/09/07 01:18:29;;;;;;;6.47;0.82;;;;;;;18.80;92.87;100484.53;7383637;19;20015;-66
2022/09/07 01:21:06;;;;;;;7.28;0.38;;;;;;;18.79;93.14;100482.09;7381816;19;20369;-66
2022/09/07 01:23:53;;;;;;;6.65;0.20;;;;;;;18.77;93.18;100479.63;7383539;19;20134;-66
2022/09/07 01:27:14;;;;;;;8.75;0.90;;;;;;;18.79;93.57;100479.44;7378939;19;20021;-66
2022/09/07 01:29:58;;;;;;;6.15;0.95;;;;;;;18.79;93.40;100476.75;7378479;19;20029;-67
2022/09/07 01:32:35;;;;;;;5.93;0.40;;;;;;;18.77;93.34;100474.31;7382391;19;20396;-66
2022/09/07 01:35:15;;;;;;;5.30;0.32;;;;;;;18.76;93.44;100474.50;7383533;19;20434;-67
2022/09/07 01:38:16;;;;;;;5.20;0.35;;;;;;;18.75;93.12;100484.34;7382467;19;20074;-66
2022/09/07 01:41:15;;;;;;;6.07;0.60;;;;;;;18.73;93.56;100483.78;7379697;19;20054;-66
2022/09/07 01:43:53;;;;;;;8.65;2.08;;;;;;;18.72;93.79;100486.63;7375296;19;20014;-66
2022/09/07 01:46:26;;;;;;;7.05;0.38;;;;;;;18.73;93.27;100490.94;7383202;19;20018;-67
2022/09/07 01:49:02;;;;;;;9.20;1.35;;;;;;;18.74;93.56;100484.59;7385880;19;20043;-67
2022/09/07 01:51:33;;;;;;;6.78;0.30;;;;;;;18.74;93.99;100487.25;7388917;19;20606;-66
2022/09/07 01:54:09;;;;;;;4.53;0.28;;;;;;;18.74;93.67;100484.59;7388659;19;20018;-67
2022/09/07 01:56:40;;;;;;;7.32;0.60;;;;;;;18.73;93.44;100474.94;7384412;19;20014;-66
2022/09/07 01:59:25;;;;;;;7.50;0.65;;;;;;;18.73;93.44;100474.94;7388147;19;20487;-67
2022/09/07 02:02:03;;;;;;;6.70;0.68;;;;;;;18.74;93.43;100471.25;7386392;19;20360;-66
2022/09/07 02:04:38;;;;;;;5.55;0.73;;;;;;;18.77;93.75;100468.16;7388057;19;20014;-66
2022/09/07 02:07:40;;;;;;;7.00;0.63;;;;;;;18.80;93.37;100465.03;7387813;19;20574;-66
2022/09/07 02:10:25;;;;;;;6.60;0.55;;;;;;;18.79;93.10;100469.56;7388109;19;20010;-66
2022/09/07 02:12:57;;;;;;;8.52;0.43;;;;;;;18.80;93.05;100467.72;7384703;19;20017;-66
2022/09/07 02:15:36;;;;;;;;;;;;;;;18.82;93.38;100452.31;7389761;19;20010;-66
2022/09/07 02:18:06;;;;;;;8.07;0.63;;;;;;;18.81;93.57;100461.34;7388515;19;20337;-66
2022/09/07 02:20:37;;;;;;;11.93;1.73;;;;;;;18.82;93.15;100452.31;7388735;19;20010;-66
2022/09/07 02:23:26;;;;;;;8.60;0.57;;;;;;;18.86;93.95;100456.19;7387952;19;20078;-65
2022/09/07 02:25:59;;;;;;;4.70;0.40;;;;;;;18.87;93.87;100457.81;7386559;19;20597;-66
2022/09/07 02:28:32;;;;;;;5.28;0.40;;;;;;;18.90;94.08;100456.56;7387518;19;20347;-66
2022/09/07 02:31:00;;;;;;;5.93;0.55;;;;;;;18.90;93.63;100456.56;7387564;19;20022;-66
2022/09/07 02:33:28;;;;;;;6.85;0.40;;;;;;;18.90;94.04;100462.72;7388449;19;20074;-66
2022/09/07 02:35:55;;;;;;;7.25;0.40;;;;;;;18.92;93.93;100454.50;7387265;19;20399;-70
2022/09/07 02:38:23;;;;;;;5.65;0.55;;;;;;;18.92;93.83;100455.34;7388163;19;20010;-66
2022/09/07 02:40:52;;;;;;;11.27;1.38;;;;;;;18.96;94.41;100461.03;7383223;19;20102;-66
2022/09/07 02:43:21;;;;;;;6.10;0.60;;;;;;;18.98;94.39;100461.66;7388056;19;20015;-67
2022/09/07 02:45:59;;;;;;;12.88;0.60;;;;;;;18.99;94.15;100465.97;7387435;19;20018;-66
2022/09/07 02:48:41;;;;;;;7.43;0.60;;;;;;;18.99;93.59;100464.09;7388405;19;20454;-65
2022/09/07 02:51:28;;;;;;;9.63;0.60;;;;;;;18.98;92.99;100465.13;7385145;19;20021;-65
2022/09/07 02:54:23;;;;;;;8.35;0.60;;;;;;;18.98;93.44;100461.66;7385051;19;20021;-66
2022/09/07 02:57:21;;;;;;;9.30;0.57;;;;;;;18.99;93.81;100453.44;7384570;19;20021;-66
2022/09/07 03:00:06;;;;;;;7.97;0.50;;;;;;;18.98;94.33;100453.66;7387631;19;20529;-67
2022/09/07 03:02:53;;;;;;;8.38;0.60;;;;;;;18.94;93.76;100449.78;7385613;19;20011;-66
2022/09/07 03:05:23;;;;;;;8.73;0.60;;;;;;;18.89;93.77;100460.28;7385944;19;20030;-66
2022/09/07 03:08:04;;;;;;;7.10;0.60;;;;;;;18.85;94.37;100457.22;7386437;19;20026;-66
2022/09/07 03:10:32;;;;;;;9.18;0.60;;;;;;;18.83;94.40;100447.81;7387136;19;20380;-66
2022/09/07 03:12:59;;;;;;;12.00;0.60;;;;;;;18.78;94.22;100456.47;7384706;19;20022;-67
2022/09/07 03:15:26;;;;;;;7.25;0.93;;;;;;;18.74;94.50;100458.72;7388298;19;20301;-66
2022/09/07 03:17:53;;;;;;;30.40;7.28;;;;;;;18.73;95.59;100458.94;7388206;19;20018;-66
2022/09/07 03:20:21;;;;;;;7.60;0.90;;;;;;;18.72;96.93;100454.66;7387158;19;20485;-66
2022/09/07 03:22:51;;;;;;;9.65;0.63;;;;;;;18.67;96.89;100452.63;7385754;19;20025;-66
2022/09/07 03:25:18;;;;;;;9.70;0.73;;;;;;;18.66;97.37;100458.16;7387825;19;20556;-66
2022/09/07 03:27:45;;;;;;;8.02;0.77;;;;;;;18.65;97.74;100457.34;7383449;19;20542;-66
2022/09/07 03:30:13;;;;;;;9.45;0.55;;;;;;;18.65;98.31;100461.84;7385399;19;20014;-66
2022/09/07 03:32:39;;;;;;;10.95;0.82;;;;;;;18.65;98.89;100465.34;7387191;19;20014;-66
2022/09/07 03:35:07;;;;;;;8.98;1.02;;;;;;;18.67;99.01;100467.81;7386984;19;20078;-66
2022/09/07 03:37:35;;;;;;;7.97;0.90;;;;;;;18.67;99.12;100465.13;7386717;19;20025;-67
2022/09/07 03:40:04;;;;;;;9.10;1.13;;;;;;;18.65;99.31;100467.19;7385174;19;20503;-65
2022/09/07 03:42:31;;;;;;;11.95;1.35;;;;;;;18.64;99.56;100468.25;7381422;19;20023;-65
2022/09/07 03:44:58;;;;;;;9.40;0.77;;;;;;;18.65;100.00;100469.84;7386304;19;20010;-66
2022/09/07 03:47:25;;;;;;;12.82;0.73;;;;;;;18.66;100.00;100476.81;7386476;19;20014;-66
2022/09/07 03:49:51;;;;;;;6.85;0.70;;;;;;;18.65;100.00;100476.00;7381882;19;20029;-66
2022/09/07 03:52:18;;;;;;;14.23;0.98;;;;;;;18.61;100.00;100469.47;7385927;19;20018;-67
2022/09/07 03:54:45;;;;;;;16.52;3.30;;;;;;;18.61;100.00;100472.13;7385569;19;20018;-66
2022/09/07 03:57:12;;;;;;;9.50;0.98;;;;;;;18.62;100.00;100478.28;7382881;19;20443;-66
2022/09/07 03:59:39;;;;;;;11.07;0.82;;;;;;;18.64;100.00;100487.69;7383785;19;20014;-66
2022/09/07 04:02:05;;;;;;;10.18;1.17;;;;;;;18.66;100.00;100487.50;7385138;19;20033;-66
2022/09/07 04:04:32;;;;;;;6.28;0.60;;;;;;;18.64;100.00;100493.03;7383278;19;20054;-66
2022/09/07 04:06:59;;;;;;;8.27;0.60;;;;;;;18.61;100.00;100482.81;7381795;19;20010;-67
2022/09/07 04:09:26;;;;;;;9.55;0.80;;;;;;;18.63;100.00;100485.25;7385320;19;20471;-66
2022/09/07 04:11:53;;;;;;;6.53;0.70;;;;;;;18.62;100.00;100480.97;7379097;19;20328;-66
2022/09/07 04:14:20;;;;;;;14.85;2.45;;;;;;;18.62;100.00;100472.97;7385461;19;20015;-66
2022/09/07 04:16:47;;;;;;;9.50;0.95;;;;;;;18.64;100.00;100470.91;7384218;19;20011;-66
2022/09/07 04:19:14;;;;;;;13.32;0.80;;;;;;;18.62;100.00;100475.63;7385436;19;20531;-66
2022/09/07 04:21:45;;;;;;;11.93;0.80;;;;;;;18.58;100.00;100477.91;7384050;19;20026;-66
2022/09/07 04:24:14;;;;;;;9.80;0.80;;;;;;;18.55;100.00;100480.16;7385375;19;20216;-65
2022/09/07 04:26:44;;;;;;;8.65;0.77;;;;;;;18.52;100.00;100480.56;7381324;19;20018;-66
2022/09/07 04:29:11;;;;;;;10.85;1.10;;;;;;;18.50;100.00;100487.94;7385729;19;20014;-65
2022/09/07 04:31:39;;;;;;;8.32;1.08;;;;;;;18.50;100.00;100485.28;7384440;19;20025;-67
2022/09/07 04:34:06;;;;;;;14.32;1.65;;;;;;;18.51;100.00;100484.25;7385296;19;20018;-66
2022/09/07 04:36:33;;;;;;;13.23;0.80;;;;;;;18.54;100.00;100492.66;7383895;19;20025;-67
2022/09/07 04:39:03;;;;;;;7.40;1.05;;;;;;;18.53;100.00;100488.38;7384826;19;20016;-65
2022/09/07 04:41:31;;;;;;;6.85;0.43;;;;;;;18.49;100.00;100486.34;7380438;19;20038;-66
2022/09/07 04:44:00;;;;;;;13.23;1.00;;;;;;;18.45;99.62;100485.09;7384552;19;20312;-67
2022/09/07 04:46:32;;;;;;;12.40;0.82;;;;;;;18.43;99.43;100481.84;7383901;19;20014;-65
2022/09/07 04:49:02;;;;;;;8.30;1.08;;;;;;;18.39;99.39;100479.59;7382699;19;20011;-67
2022/09/07 04:51:36;;;;;;;14.93;1.13;;;;;;;18.39;99.46;100484.09;7383218;19;20357;-66
2022/09/07 04:54:04;;;;;;;12.38;1.10;;;;;;;18.39;100.00;100487.59;7383245;19;20011;-66
2022/09/07 04:56:38;;;;;;;9.05;0.77;;;;;;;18.39;100.00;100487.59;7381118;19;20006;-67
2022/09/07 04:59:24;;;;;;;8.65;1.25;;;;;;;18.41;100.00;100491.91;7382806;19;20025;-67
2022/09/07 05:02:13;;;;;;;9.93;0.90;;;;;;;18.40;100.00;100485.75;7382904;19;20026;-67
2022/09/07 05:04:40;;;;;;;8.68;0.60;;;;;;;18.40;100.00;100491.06;7384537;19;20011;-66
2022/09/07 05:07:07;;;;;;;4.03;0.50;;;;;;;18.37;100.00;100487.00;7384445;19;20483;-67
2022/09/07 05:09:34;;;;;;;7.38;1.20;;;;;;;18.37;99.96;100481.66;7383836;19;20020;-67
2022/09/07 05:12:01;;;;;;;11.38;1.10;;;;;;;18.35;99.96;100491.72;7380070;19;20029;-66
2022/09/07 05:14:28;;;;;;;4.50;0.50;;;;;;;18.36;100.00;100490.69;7381625;19;20015;-66
2022/09/07 05:16:55;;;;;;;8.95;0.63;;;;;;;18.33;99.87;100493.78;7383353;19;20010;-67
2022/09/07 05:19:22;;;;;;;11.73;1.05;;;;;;;18.31;99.55;100495.00;7384135;19;20017;-67
2022/09/07 05:21:49;;;;;;;5.95;0.70;;;;;;;18.30;99.99;100490.72;7382900;19;20090;-65
2022/09/07 05:24:16;;;;;;;7.10;0.75;;;;;;;18.29;99.56;100494.41;7389791;19;20011;-66
2022/09/07 05:26:43;;;;;;;7.18;0.90;;;;;;;18.29;99.58;100491.72;7386096;19;20431;-66
2022/09/07 05:29:10;;;;;;;10.90;2.38;;;;;;;18.31;99.88;100493.16;7391012;19;20021;-67
2022/09/07 05:31:57;;;;;;;6.47;0.88;;;;;;;18.31;99.88;100497.69;7390067;19;20010;-66
2022/09/07 05:34:24;;;;;;;6.80;0.93;;;;;;;18.31;99.86;100498.50;7390365;19;20367;-66
2022/09/07 05:36:54;;;;;;;12.32;1.15;;;;;;;18.30;99.56;100496.03;7386663;19;20101;-66
2022/09/07 05:39:21;;;;;;;10.82;0.85;;;;;;;18.29;99.62;100505.06;7390006;19;20014;-66
2022/09/07 05:41:48;;;;;;;7.20;0.60;;;;;;;18.27;99.45;100502.63;7383355;19;20018;-65
2022/09/07 05:44:15;;;;;;;6.95;0.60;;;;;;;18.26;98.77;100495.66;7389651;19;20014;-66
2022/09/07 05:47:02;;;;;;;15.88;2.42;;;;;;;18.26;99.08;100498.31;7388545;19;20025;-66
2022/09/07 05:49:29;;;;;;;7.85;0.77;;;;;;;18.28;98.92;100500.78;7388644;19;20367;-65
2022/09/07 05:51:56;;;;;;;11.65;1.25;;;;;;;18.27;98.77;100494.63;7390256;19;20018;-67
2022/09/07 05:54:22;;;;;;;13.35;1.60;;;;;;;18.27;98.65;100499.13;7389145;19;20017;-66
2022/09/07 05:56:55;;;;;;;9.65;0.70;;;;;;;18.24;98.35;100492.38;7385025;19;20023;-66
2022/09/07 05:59:21;;;;;;;11.82;1.10;;;;;;;18.24;98.49;100496.88;7389867;19;20136;-65
2022/09/07 06:01:48;;;;;;;16.33;1.55;;;;;;;18.22;98.28;100493.63;7389503;19;20082;-66
2022/09/07 06:04:19;;;;;;;12.20;1.33;;;;;;;18.23;98.76;100493.41;7389692;19;20356;-67
2022/09/07 06:06:45;;;;;;;17.52;1.10;;;;;;;18.22;99.21;100504.28;7388254;19;20054;-67
2022/09/07 06:09:33;;;;;;;11.45;1.10;;;;;;;18.23;99.14;100503.25;7389669;19;20025;-66
2022/09/07 06:12:03;;;;;;;7.90;1.00;;;;;;;18.21;99.10;100500.78;7385529;19;20006;-66
2022/09/07 06:14:30;;;;;;;10.10;0.98;;;;;;;18.22;98.88;100504.28;7390111;19;20033;-66
2022/09/07 06:16:58;;;;;;;11.88;1.45;;;;;;;18.21;98.72;100505.31;7389262;19;20179;-66
2022/09/07 06:19:25;;;;;;;11.25;1.40;;;;;;;18.19;98.64;100508.16;7387508;19;20007;-66
2022/09/07 06:21:52;;;;;;;21.90;4.97;;;;;;;18.19;99.06;100508.16;7390246;19;20022;-66
2022/09/07 06:24:19;;;;;;;7.72;1.02;;;;;;;18.20;98.85;100506.31;7385993;19;20487;-66
2022/09/07 06:27:01;;;;;;;13.48;1.52;;;;;;;18.23;99.33;100506.75;7384592;19;20679;-66
2022/09/07 06:29:48;;;;;;;16.58;1.95;;;;;;;18.23;98.62;100506.75;7387963;19;20010;-66
2022/09/07 06:32:15;;;;;;;8.80;1.33;;;;;;;18.23;98.57;100498.75;7328302;19;20030;-66
2022/09/07 06:35:12;;;;;;;12.35;1.55;;;;;;;18.24;98.90;100495.03;7381923;19;20026;-65
2022/09/07 06:37:42;;;;;;;10.98;1.20;;;;;;;18.24;99.03;100499.53;7383960;19;20502;-66
2022/09/07 06:40:10;;;;;;;94.32;11.50;;;;;;;18.23;98.72;100501.41;7384520;19;20010;-66
2022/09/07 06:42:38;;;;;;;15.98;1.55;;;;;;;18.27;99.17;100501.81;7380778;19;20010;-66
2022/09/07 06:45:05;;;;;;;16.17;1.88;;;;;;;18.28;99.02;100504.25;7387343;19;20011;-66
2022/09/07 06:47:32;;;;;;;14.23;1.13;;;;;;;18.29;98.74;100499.72;7385390;19;20019;-66
2022/09/07 06:49:59;;;;;;;11.07;1.35;;;;;;;18.29;98.45;100500.53;7383523;19;20018;-67
2022/09/07 06:52:26;;;;;;;14.38;1.50;;;;;;;18.31;98.59;100501.16;7384954;19;20467;-67
2022/09/07 06:54:53;;;;;;;14.07;1.42;;;;;;;18.33;98.78;100501.78;7385239;19;20010;-67
2022/09/07 06:57:25;;;;;;;18.83;1.70;;;;;;;18.34;98.92;100503.41;7379588;19;20082;-67
2022/09/07 06:59:52;;;;;;;14.85;1.90;;;;;;;18.35;98.19;100505.03;7385720;19;20018;-67
2022/09/07 07:02:19;;;;;;;23.20;1.63;;;;;;;18.36;97.65;100517.34;7385295;19;20021;-66
2022/09/07 07:04:57;;;;;;;17.02;1.38;;;;;;;18.37;97.50;100510.16;7384808;19;20018;-67
2022/09/07 07:07:36;;;;;;;17.33;1.33;;;;;;;18.38;97.32;100515.28;7384126;19;20010;-66
2022/09/07 07:10:29;;;;;;;19.25;1.70;;;;;;;18.42;97.32;100512.19;7385150;19;20090;-66
2022/09/07 07:13:14;;;;;;;15.70;2.22;;;;;;;18.44;97.26;100512.81;7384820;19;20018;-66
2022/09/07 07:15:40;;;;;;;15.18;1.08;;;;;;;18.45;97.07;100515.22;7382987;19;20026;-66
2022/09/07 07:18:13;;;;;;;13.13;2.30;;;;;;;18.50;97.25;100514.59;7386043;19;20014;-66
2022/09/07 07:20:46;;;;;;;10.57;1.80;;;;;;;18.58;97.21;100522.41;7382858;19;20006;-66
2022/09/07 07:23:13;;;;;;;12.55;1.42;;;;;;;18.61;97.04;100522.78;7383160;19;20035;-66
2022/09/07 07:25:40;;;;;;;14.93;1.80;;;;;;;18.66;97.12;100508.81;7384437;19;20504;-67
2022/09/07 07:28:10;;;;;;;15.82;1.33;;;;;;;18.70;97.01;100513.50;7381820;19;20014;-70
2022/09/07 07:30:58;;;;;;;18.80;1.50;;;;;;;18.72;96.88;100506.13;7382331;19;20320;-66
2022/09/07 07:33:31;;;;;;;11.52;0.85;;;;;;;18.77;96.88;100514.28;7384166;19;20006;-67
2022/09/07 07:36:09;;;;;;;11.57;1.70;;;;;;;18.80;96.98;100505.84;7386739;19;20022;-67
2022/09/07 07:38:36;;;;;;;14.52;1.10;;;;;;;18.84;96.75;100516.94;7383036;19;20010;-66
2022/09/07 07:41:26;;;;;;;9.98;1.13;;;;;;;18.89;96.54;100510.94;7379392;19;20022;-66
2022/09/07 07:44:16;;;;;;;14.65;1.00;;;;;;;18.93;96.51;100514.81;7380928;19;20013;-66
2022/09/07 07:46:46;;;;;;;12.57;1.23;;;;;;;18.95;96.47;100504.72;7382943;19;20672;-65
2022/09/07 07:49:13;;;;;;;16.35;1.25;;;;;;;18.97;96.15;100519.50;7385077;19;20021;-67
2022/09/07 07:51:40;;;;;;;15.00;1.13;;;;;;;19.01;96.08;100523.38;7383850;19;20034;-65
2022/09/07 07:54:27;;;;;;;20.80;2.55;;;;;;;19.04;95.98;100536.28;7384258;19;20098;-67
2022/09/07 07:56:54;;;;;;;19.35;1.63;;;;;;;19.05;95.74;100539.75;7379790;19;20010;-66
2022/09/07 07:59:25;;;;;;;11.65;1.15;;;;;;;19.05;95.54;100537.06;7382813;19;20018;-66
2022/09/07 08:01:52;;;;;;;20.50;1.48;;;;;;;19.07;95.10;100535.03;7384720;19;20333;-66
2022/09/07 08:04:19;;;;;;;12.80;0.95;;;;;;;19.09;95.17;100532.97;7383832;19;20412;-66
2022/09/07 08:06:46;;;;;;;15.05;1.00;;;;;;;19.09;95.28;100535.63;7383882;19;20014;-67
2022/09/07 08:09:12;;;;;;;13.00;1.25;;;;;;;19.12;95.40;100535.19;7384901;19;20357;-66
2022/09/07 08:11:41;;;;;;;15.65;2.28;;;;;;;19.12;95.54;100533.34;7381240;19;20125;-67
2022/09/07 08:14:08;;;;;;;17.38;1.60;;;;;;;19.18;95.65;100529.81;7384852;19;20071;-67
2022/09/07 08:16:36;;;;;;;17.38;1.73;;;;;;;19.19;94.29;100527.97;7384406;19;20019;-67
2022/09/07 08:19:04;;;;;;;15.23;1.85;;;;;;;19.23;94.25;100535.31;7383219;19;20014;-68
2022/09/07 08:21:36;;;;;;;18.15;1.90;;;;;;;19.27;94.44;100526.88;7384044;19;20014;-65
2022/09/07 08:24:13;;;;;;;17.83;1.25;;;;;;;19.31;94.23;100530.75;7384162;19;20006;-68
2022/09/07 08:26:46;;;;;;;10.75;0.70;;;;;;;19.34;93.47;100531.16;7381321;19;20015;-68
2022/09/07 08:29:19;;;;;;;15.38;3.05;;;;;;;19.37;93.26;100535.22;7384717;19;20155;-67
2022/09/07 08:31:47;;;;;;;13.75;1.30;;;;;;;19.40;93.07;100532.13;7383174;19;20042;-66
2022/09/07 08:34:20;;;;;;;13.27;1.98;;;;;;;19.42;92.65;100530.88;7382643;19;20814;-67
2022/09/07 08:36:47;;;;;;;13.55;1.10;;;;;;;19.46;91.96;100526.75;7383770;19;20014;-66
2022/09/07 08:39:14;;;;;;;16.15;1.58;;;;;;;19.50;91.57;100535.16;7381841;19;20007;-67
2022/09/07 08:41:50;;;;;;;12.13;1.33;;;;;;;19.54;91.45;100541.69;7381079;19;20045;-67
2022/09/07 08:44:17;;;;;;;14.32;1.20;;;;;;;19.59;90.92;100532.00;7381357;19;20357;-66
2022/09/07 08:47:04;;;;;;;16.63;1.48;;;;;;;19.63;90.75;100530.50;7381689;19;20010;-66
2022/09/07 08:49:57;;;;;;;16.02;1.35;;;;;;;19.68;91.43;100531.69;7381948;19;20094;-66
2022/09/07 08:52:50;;;;;;;8.93;1.05;;;;;;;19.71;91.25;100529.41;7383426;19;20015;-67
2022/09/07 08:55:46;;;;;;;14.23;1.15;;;;;;;19.74;90.56;100525.50;7382462;19;20015;-67
2022/09/07 08:58:27;;;;;;;12.07;1.17;;;;;;;19.71;88.88;100525.94;7382479;19;20368;-66
2022/09/07 09:01:35;;;;;;;11.65;0.88;;;;;;;19.70;88.81;100525.13;7383808;19;20018;-66
2022/09/07 09:04:15;;;;;;;11.68;1.60;;;;;;;19.73;89.30;100516.66;7381695;19;20011;-67
2022/09/07 09:07:18;;;;;;;13.40;1.38;;;;;;;19.78;90.42;100510.66;7381758;19;20017;-67
2022/09/07 09:09:45;;;;;;;12.98;1.17;;;;;;;19.81;89.87;100510.22;7382548;19;20021;-66
2022/09/07 09:12:30;;;;;;;10.07;0.85;;;;;;;19.79;88.12;100507.78;7380001;19;20051;-66
2022/09/07 09:16:01;;;;;;;16.55;1.20;;;;;;;19.82;87.46;100509.16;7380765;19;20552;-66
2022/09/07 09:18:40;;;;;;;11.63;0.80;;;;;;;19.87;87.64;100503.97;7377621;19;20022;-67
2022/09/07 09:21:18;;;;;;;10.20;2.10;;;;;;;19.92;87.55;100501.47;7381908;19;20011;-67
2022/09/07 09:23:48;;;;;;;11.30;1.10;;;;;;;19.96;87.41;100495.44;7381669;19;20074;-67
2022/09/07 09:26:20;;;;;;;10.68;0.90;;;;;;;20.03;87.47;100490.84;7379900;19;20377;-66
2022/09/07 09:28:48;;;;;;;12.60;0.90;;;;;;;20.11;86.62;100489.75;7382868;19;20455;-67
2022/09/07 09:31:20;;;;;;;18.00;1.60;;;;;;;20.16;86.11;100481.88;7380468;19;20014;-66
2022/09/07 09:34:05;;;;;;;12.05;1.35;;;;;;;20.24;85.76;100481.56;7383483;19;20479;-67
2022/09/07 09:36:39;;;;;;;11.20;0.80;;;;;;;20.33;86.13;100487.44;7382586;19;20545;-66
2022/09/07 09:39:26;;;;;;;12.80;1.88;;;;;;;20.37;85.98;100484.09;7381924;19;20014;-65
2022/09/07 09:42:10;;;;;;;14.07;1.77;;;;;;;20.41;85.08;100479.94;7378687;19;20015;-66
2022/09/07 09:44:37;;;;;;;11.75;1.65;;;;;;;20.48;84.62;100478.00;7379058;19;20018;-66
2022/09/07 09:47:05;;;;;;;12.88;2.03;;;;;;;20.58;84.32;100488.13;7381762;19;20278;-67
2022/09/07 09:49:52;;;;;;;11.43;0.80;;;;;;;20.66;83.94;100482.50;7381677;19;20040;-66
2022/09/07 09:52:23;;;;;;;7.68;0.77;;;;;;;20.73;82.70;100485.88;7379664;19;20015;-66
2022/09/07 09:54:56;;;;;;;15.02;0.77;;;;;;;20.80;81.57;100472.41;7380413;19;20635;-66
2022/09/07 09:57:57;;;;;;;14.23;1.67;;;;;;;20.90;81.08;100484.19;7379682;19;20022;-66
2022/09/07 10:01:01;;;;;;;12.50;0.98;;;;;;;21.00;80.54;100475.59;7382375;19;20082;-67
2022/09/07 10:03:48;;;;;;;8.38;0.80;;;;;;;21.01;80.41;100487.13;7381040;19;20018;-64
2022/09/07 10:06:27;;;;;;;13.48;0.60;;;;;;;20.96;78.01;100489.66;7382011;19;20010;-66
2022/09/07 10:09:06;;;;;;;7.43;0.55;;;;;;;20.91;77.46;100488.50;7380794;19;20030;-66
2022/09/07 10:12:01;;;;;;;5.97;0.70;;;;;;;20.86;79.05;100483.03;7384507;19;20010;-66
2022/09/07 10:14:42;;;;;;;12.20;0.85;;;;;;;20.81;79.42;100487.41;7388691;19;20138;-65
2022/09/07 10:17:36;;;;;;;13.50;1.15;;;;;;;20.79;81.48;100506.38;7389534;19;20345;-65
2022/09/07 10:20:11;;;;;;;8.80;0.80;;;;;;;20.75;81.36;100499.84;7386274;19;20011;-64
2022/09/07 10:22:39;;;;;;;11.52;0.73;;;;;;;20.66;81.95;100509.22;7388553;19;20186;-65
2022/09/07 10:25:38;;;;;;;10.35;0.85;;;;;;;20.57;83.22;100493.75;7390048;19;20443;-66
2022/09/07 10:28:17;;;;;;;8.75;0.40;;;;;;;20.47;84.26;100495.06;7385484;19;20014;-66
2022/09/07 10:31:05;;;;;;;7.80;1.08;;;;;;;20.44;85.96;100494.72;7389334;19;20018;-66
2022/09/07 10:34:22;;;;;;;7.30;0.50;;;;;;;20.37;85.36;100477.94;7389904;19;20014;-65
2022/09/07 10:37:03;;;;;;;5.40;0.40;;;;;;;20.36;85.56;100481.66;7386081;19;20009;-65
2022/09/07 10:39:51;;;;;;;4.55;0.75;;;;;;;20.37;85.40;100481.41;7386541;19;20487;-66
2022/09/07 10:42:29;;;;;;;5.30;0.35;;;;;;;20.38;85.40;100475.03;7384683;19;20010;-66
2022/09/07 10:45:18;;;;;;;5.32;0.40;;;;;;;20.40;85.32;100475.66;7384337;19;20014;-65
2022/09/07 10:48:01;;;;;;;4.72;0.50;;;;;;;20.44;86.47;100473.31;7389669;19;20011;-66
2022/09/07 10:50:57;;;;;;;8.90;0.70;;;;;;;20.45;86.83;100467.75;7385125;19;20037;-67
2022/09/07 10:53:39;;;;;;;10.70;1.65;;;;;;;20.46;86.34;100472.06;7389708;19;20022;-67
2022/09/07 10:56:13;;;;;;;7.88;1.00;;;;;;;20.46;86.08;100468.59;7385501;19;20011;-68
2022/09/07 10:59:25;;;;;;;10.65;0.85;;;;;;;20.48;86.61;100463.81;7387505;19;20399;-66
2022/09/07 11:02:33;;;;;;;5.80;0.88;;;;;;;20.50;86.89;100469.75;7386365;19;20378;-68
2022/09/07 11:05:26;;;;;;;6.43;0.50;;;;;;;20.53;86.71;100463.94;7381651;19;20018;-67
2022/09/07 11:08:14;;;;;;;9.15;0.88;;;;;;;20.56;86.49;100465.34;7384691;19;20019;-66
2022/09/07 11:10:49;;;;;;;7.65;0.45;;;;;;;20.61;86.38;100458.28;7385246;19;20459;-67
2022/09/07 11:13:23;;;;;;;7.97;0.73;;;;;;;20.66;85.64;100445.06;7386465;19;20011;-66
2022/09/07 11:16:01;;;;;;;8.13;0.85;;;;;;;20.69;85.41;100452.59;7386485;19;20058;-66
2022/09/07 11:18:39;;;;;;;6.93;0.90;;;;;;;20.71;86.21;100453.22;7387477;19;20025;-66
2022/09/07 11:21:13;;;;;;;7.93;2.97;;;;;;;20.74;85.93;100443.91;7385086;19;20412;-65
2022/09/07 11:23:48;;;;;;;7.18;0.60;;;;;;;20.77;85.59;100454.97;7384970;19;20018;-65
2022/09/07 11:26:36;;;;;;;9.93;0.50;;;;;;;20.85;84.89;100462.66;7383701;19;20007;-65
2022/09/07 11:29:19;;;;;;;9.50;1.42;;;;;;;20.91;83.28;100459.06;7385465;19;20457;-66
2022/09/07 11:32:08;;;;;;;11.63;0.80;;;;;;;20.95;82.92;100456.75;7385733;19;20007;-65
2022/09/07 11:35:11;;;;;;;8.55;0.80;;;;;;;20.97;82.35;100451.16;7386803;19;20015;-65
2022/09/07 11:37:48;;;;;;;10.75;2.05;;;;;;;20.99;82.53;100452.56;7386025;19;20010;-66
2022/09/07 11:40:28;;;;;;;11.48;0.82;;;;;;;21.03;83.38;100451.03;7384928;19;20018;-65
2022/09/07 11:43:01;;;;;;;9.68;0.95;;;;;;;21.10;83.87;100442.91;7381591;19;20510;-65
2022/09/07 11:45:41;;;;;;;16.80;11.45;;;;;;;21.17;85.40;100441.81;7386329;19;20050;-65
2022/09/07 11:48:23;;;;;;;14.65;4.32;;;;;;;21.21;86.50;100444.81;7383695;19;20019;-66
2022/09/07 11:51:12;;;;;;;10.43;0.90;;;;;;;21.20;85.26;100445.88;7382335;19;20484;-65
2022/09/07 11:53:51;;;;;;;10.32;0.90;;;;;;;21.16;84.00;100442.84;7383916;19;20085;-65
2022/09/07 11:56:41;;;;;;;8.52;1.35;;;;;;;21.17;83.83;100441.81;7383369;19;20018;-66